Observations de surface / France / LFRQ

Québec | Canada | États-Unis | France | UK | Europe | Ailleurs

Affichage: Infos & localisation pour LFRQ | Aide pour décoder les METARs

LFRQ QUIMPER/PLUGUFFAN -- FR
Raw surface observations for station LFRQ
LFRQ 211700Z AUTO 09001KT 9000 -RA NSC 04/M01 Q1023 TEMPO 3000 BR=
LFRQ 211630Z AUTO 09002KT 8000 -RA NSC 05/M01 Q1023 TEMPO 3000 BR=
LFRQ 211600Z AUTO 11001KT 8000 -RA NSC 05/M01 Q1023 TEMPO 3000 BR=
LFRQ 211530Z AUTO 07004KT 040V100 9000 NSC 05/M01 Q1023 TEMPO 3000 BR=
LFRQ 211500Z AUTO 06004KT 9000 NSC 06/M00 Q1023 NOSIG=
LFRQ 211430Z AUTO 08004KT 040V100 9000 NSC 06/M00 Q1023 NOSIG=
LFRQ 211400Z AUTO 07004KT 030V110 8000 NSC 06/M00 Q1024 NOSIG=
LFRQ 211330Z AUTO 07005KT 030V100 8000 NSC 06/M00 Q1024 NOSIG=
LFRQ 211300Z AUTO 08004KT 7000 NSC 05/M01 Q1024 NOSIG=
LFRQ 211230Z AUTO 11004KT 070V140 7000 NSC 05/M01 Q1025 NOSIG=
LFRQ 211200Z AUTO 12004KT 080V150 6000 NSC 05/M01 Q1025 NOSIG=
LFRQ 211130Z AUTO 11003KT 070V150 6000 NSC 04/M02 Q1025 NOSIG=
LFRQ 211100Z AUTO 07003KT 5000 BR NSC 02/M02 Q1025 NOSIG=
LFRQ 211030Z AUTO 07004KT 5000 BR NSC 01/M02 Q1025 NOSIG=
LFRQ 211000Z AUTO 06003KT 3600 BR NSC 00/M02 Q1025 BECMG 8000 NSW=
LFRQ 210930Z AUTO 05005KT 3000 BR NSC M01/M03 Q1025 BECMG 8000 NSW=
LFRQ 210900Z AUTO 05005KT 2700 BR NSC M02/M03 Q1025 BECMG 8000 NSW=
LFRQ 210830Z AUTO 04004KT 2800 BR NSC M03/M04 Q1025 BECMG 8000 NSW=
LFRQ 210800Z AUTO 03004KT 2900 BR NSC M04/M05 Q1025 BECMG 6000 NSW=
LFRQ 210730Z AUTO 03004KT 4300 BR NSC M04/M05 Q1025 BECMG 6000 NSW=
LFRQ 210700Z AUTO 03004KT 4300 BR NSC M04/M05 Q1025 BECMG 6000 NSW=
LFRQ 210630Z AUTO 03004KT 4300 BR NSC M04/M05 Q1025 BECMG 6000 NSW=
LFRQ 210600Z AUTO 03004KT 4600 BR NSC M03/M04 Q1025 BECMG 6000 NSW=
LFRQ 210530Z AUTO 06004KT 4900 BR NSC M03/M05 Q1025 BECMG 6000 NSW=
LFRQ 210500Z AUTO 04004KT 5000 BR NSC M03/M05 Q1025=
LFRQ 210430Z AUTO 04004KT 5000 BR NSC M03/M05 Q1025=
LFRQ 210400Z AUTO 04005KT 5000 BR FEW023 M03/M05 Q1026=
LFRQ 210330Z AUTO 04003KT 5000 BR BKN023 M02/M05 Q1026=
LFRQ 210300Z AUTO 05004KT 5000 BR OVC021 M01/M04 Q1026=
LFRQ 210230Z AUTO 06005KT 6000 OVC019 M01/M04 Q1026=
LFRQ 210200Z AUTO 06006KT 6000 OVC019 M01/M04 Q1026=
LFRQ 210130Z AUTO 05006KT 5000 BR OVC018 M01/M04 Q1026=
LFRQ 210100Z AUTO 05006KT 6000 OVC017 M02/M04 Q1027=
LFRQ 210030Z AUTO 05005KT 6000 OVC017 M02/M04 Q1027=
LFRQ 210000Z AUTO 03004KT 5000 BR OVC018 M02/M04 Q1027=
LFRQ 202330Z AUTO 03004KT 5000 BR OVC018 M02/M05 Q1027=
LFRQ 202300Z AUTO 04004KT 5000 BR OVC019 M03/M05 Q1027 NOSIG=
LFRQ 202230Z AUTO 04004KT 5000 BR BKN020 M04/M06 Q1027 NOSIG=
LFRQ 202200Z AUTO 05003KT 5000 BR NSC M04/M06 Q1027 NOSIG=
LFRQ 202130Z AUTO 09002KT 6000 NSC M03/M06 Q1027 NOSIG=
LFRQ 202100Z AUTO 09003KT 6000 NSC M03/M06 Q1027 NOSIG=
LFRQ 202030Z AUTO 06003KT 6000 NSC M03/M06 Q1027 NOSIG=
LFRQ 202000Z AUTO 11003KT 7000 NSC M03/M07 Q1027 NOSIG=
LFRQ 201930Z AUTO 10004KT 7000 NSC M03/M06 Q1027 NOSIG=
LFRQ 201900Z AUTO 09003KT 6000 NSC M02/M06 Q1027 NOSIG=
LFRQ 201830Z AUTO 25001KT 7000 NSC M02/M06 Q1027 NOSIG=
LFRQ 201800Z AUTO 24003KT 7000 NSC M01/M05 Q1026 NOSIG=
LFRQ 201730Z AUTO 23004KT 7000 NSC M01/M05 Q1026 NOSIG=
LFRQ 201700Z AUTO 22004KT 9000 NSC 00/M05 Q1026 NOSIG=